createdAt,value
2018-07-02T00:00:15.920Z,99.90
2018-07-02T00:02:44.663Z,99.90
2018-07-02T00:05:13.358Z,99.90
2018-07-02T00:07:42.278Z,99.90
2018-07-02T00:10:11.084Z,99.90
2018-07-02T00:12:43.884Z,99.90
2018-07-02T00:15:13.946Z,99.90
2018-07-02T00:17:42.711Z,99.90
2018-07-02T00:20:11.412Z,99.90
2018-07-02T00:22:40.234Z,99.90
2018-07-02T00:25:08.902Z,99.90
2018-07-02T00:27:37.640Z,99.90
2018-07-02T00:30:07.392Z,99.90
2018-07-02T00:32:37.096Z,99.90
2018-07-02T00:35:09.790Z,99.90
2018-07-02T00:37:39.469Z,99.90
2018-07-02T00:40:10.145Z,99.90
2018-07-02T00:42:38.939Z,99.90
2018-07-02T00:45:07.566Z,99.90
2018-07-02T00:47:36.858Z,99.90
2018-07-02T00:50:06.718Z,99.90
2018-07-02T00:52:35.430Z,99.90
2018-07-02T00:57:34.323Z,99.90
2018-07-02T01:00:09.988Z,99.90
2018-07-02T01:02:38.655Z,99.90
2018-07-02T01:05:08.362Z,99.90
2018-07-02T01:07:37.423Z,99.90
2018-07-02T01:10:09.568Z,99.90
2018-07-02T01:12:38.352Z,99.90
2018-07-02T01:15:09.072Z,99.90
2018-07-02T01:17:37.748Z,99.90
2018-07-02T01:20:06.642Z,99.90
2018-07-02T01:22:35.389Z,99.90
2018-07-02T01:25:06.153Z,99.90
2018-07-02T01:27:35.083Z,99.90
2018-07-02T01:30:05.253Z,99.90
2018-07-02T01:32:34.955Z,99.90
2018-07-02T01:35:03.820Z,99.90
2018-07-02T01:37:32.667Z,99.90
2018-07-02T01:40:01.391Z,99.90
2018-07-02T01:42:30.100Z,99.90
2018-07-02T01:45:01.249Z,99.90
2018-07-02T01:47:30.017Z,99.90
2018-07-02T01:49:58.745Z,99.90
2018-07-02T01:52:28.421Z,99.90
2018-07-02T01:54:57.312Z,99.90
2018-07-02T01:57:26.382Z,99.90
2018-07-02T01:59:59.041Z,99.90
2018-07-02T02:02:28.038Z,99.90
2018-07-02T02:04:57.749Z,99.90
2018-07-02T02:07:27.513Z,99.90
2018-07-02T02:10:01.107Z,99.90
2018-07-02T02:12:30.136Z,99.90
2018-07-02T02:14:58.861Z,99.90
2018-07-02T02:17:27.512Z,99.90
2018-07-02T02:19:56.223Z,99.90
2018-07-02T02:22:24.931Z,99.90
2018-07-02T02:24:53.613Z,99.90
2018-07-02T02:27:22.403Z,99.90
2018-07-02T02:29:51.171Z,99.90
2018-07-02T02:32:19.982Z,99.90
2018-07-02T02:34:49.741Z,99.90
2018-07-02T02:37:19.432Z,99.90
2018-07-02T02:39:51.955Z,99.90
2018-07-02T02:42:20.561Z,99.90
2018-07-02T02:44:49.288Z,99.90
2018-07-02T02:47:18.077Z,99.90
2018-07-02T02:49:47.829Z,99.90
2018-07-02T02:52:16.550Z,99.90
2018-07-02T02:54:45.351Z,99.90
2018-07-02T02:57:14.350Z,99.90
2018-07-02T02:59:43.311Z,99.90
2018-07-02T03:02:13.056Z,99.90
2018-07-02T03:04:42.743Z,99.90
2018-07-02T03:07:11.514Z,99.90
2018-07-02T03:09:41.424Z,99.90
2018-07-02T03:12:10.265Z,99.90
2018-07-02T03:14:42.864Z,99.90
2018-07-02T03:17:11.600Z,99.90
2018-07-02T03:19:44.302Z,99.90
2018-07-02T03:22:13.690Z,99.90
2018-07-02T03:24:42.381Z,99.90
2018-07-02T03:27:12.203Z,99.90
2018-07-02T03:29:41.937Z,99.90
2018-07-02T03:32:16.663Z,99.90
2018-07-02T03:34:46.386Z,99.90
2018-07-02T03:37:15.122Z,99.90
2018-07-02T03:39:43.982Z,99.90
2018-07-02T03:42:12.670Z,99.90
2018-07-02T03:44:42.452Z,99.90
2018-07-02T03:47:11.361Z,99.90
2018-07-02T03:49:40.026Z,99.90
2018-07-02T03:52:08.786Z,99.90
2018-07-02T03:54:38.464Z,99.90
2018-07-02T03:57:07.168Z,99.90
2018-07-02T03:59:35.862Z,99.90
2018-07-02T04:02:05.657Z,99.90
2018-07-02T04:04:36.716Z,99.90
2018-07-02T04:07:07.497Z,99.90
2018-07-02T04:09:37.200Z,99.90
2018-07-02T04:12:10.681Z,99.90
2018-07-02T04:14:39.385Z,99.90
2018-07-02T04:17:12.182Z,99.90
2018-07-02T04:19:40.894Z,99.90
2018-07-02T04:22:09.513Z,99.90
2018-07-02T04:24:38.216Z,99.90
2018-07-02T04:27:11.383Z,99.90
2018-07-02T04:29:41.168Z,99.90
2018-07-02T04:32:10.861Z,99.90
2018-07-02T04:34:39.591Z,99.90
2018-07-02T04:37:10.296Z,99.90
2018-07-02T04:39:40.119Z,99.90
2018-07-02T04:42:09.789Z,99.60
2018-07-02T04:44:38.471Z,99.70
2018-07-02T04:47:09.178Z,99.50
2018-07-02T04:49:41.318Z,99.40
2018-07-02T04:52:11.045Z,99.40
2018-07-02T04:54:39.695Z,98.20
2018-07-02T04:57:08.500Z,97.30
2018-07-02T05:02:06.658Z,98.10
2018-07-02T05:04:35.316Z,96.80
2018-07-02T05:07:07.373Z,96.30
2018-07-02T05:09:36.112Z,96.60
2018-07-02T05:12:04.883Z,96.50
2018-07-02T05:14:34.535Z,96.30
2018-07-02T05:17:07.730Z,97.10
2018-07-02T05:19:40.799Z,96.10
2018-07-02T05:22:09.576Z,95.90
2018-07-02T05:25:08.160Z,95.00
2018-07-02T05:27:36.921Z,95.00
2018-07-02T05:30:05.821Z,93.90
2018-07-02T05:32:34.513Z,92.70
2018-07-02T05:35:03.267Z,94.70
2018-07-02T05:37:31.981Z,94.20
2018-07-02T05:40:01.623Z,94.50
2018-07-02T05:42:31.336Z,95.50
2018-07-02T05:45:00.147Z,95.10
2018-07-02T05:47:28.859Z,95.10
2018-07-02T05:49:58.585Z,95.90
2018-07-02T05:52:27.205Z,95.70
2018-07-02T05:54:56.027Z,97.70
2018-07-02T05:57:28.768Z,98.40
2018-07-02T05:59:57.560Z,97.10
2018-07-02T06:02:27.199Z,99.20
2018-07-02T06:04:56.277Z,97.20
2018-07-02T06:07:25.129Z,98.60
2018-07-02T06:09:55.843Z,97.30
2018-07-02T06:12:24.575Z,98.90
2018-07-02T06:14:54.212Z,98.60
2018-07-02T06:17:22.988Z,97.60
2018-07-02T06:19:52.809Z,98.90
2018-07-02T06:22:23.548Z,98.90
2018-07-02T06:24:54.226Z,97.50
2018-07-02T06:27:22.994Z,97.90
2018-07-02T06:29:54.719Z,99.20
2018-07-02T06:32:24.419Z,98.00
2018-07-02T06:34:53.105Z,99.20
2018-07-02T06:37:22.977Z,97.40
2018-07-02T06:39:52.768Z,95.50
2018-07-02T06:42:21.524Z,95.10
2018-07-02T06:44:51.299Z,93.10
2018-07-02T06:47:20.073Z,93.60
2018-07-02T06:49:48.807Z,92.70
2018-07-02T06:52:17.557Z,93.60
2018-07-02T06:57:14.979Z,92.80
2018-07-02T06:59:43.724Z,91.50
2018-07-02T07:02:12.612Z,91.00
2018-07-02T07:04:41.378Z,91.80
2018-07-02T07:07:10.120Z,91.40
2018-07-02T07:09:38.829Z,90.50
2018-07-02T07:12:08.223Z,88.90
2018-07-02T07:14:37.151Z,92.20
2018-07-02T07:17:06.020Z,88.60
2018-07-02T07:19:34.797Z,89.00
2018-07-02T07:22:03.545Z,90.50
2018-07-02T07:24:33.130Z,88.60
2018-07-02T07:27:02.318Z,90.60
2018-07-02T07:29:32.013Z,91.10
2018-07-02T07:32:01.319Z,89.30
2018-07-02T07:34:29.993Z,92.00
2018-07-02T07:36:58.755Z,91.90
2018-07-02T07:39:27.498Z,90.90
2018-07-02T07:41:57.250Z,92.40
2018-07-02T07:44:25.924Z,94.00
2018-07-02T07:46:56.804Z,91.90
2018-07-02T07:49:25.509Z,93.60
2018-07-02T07:51:55.201Z,93.80
2018-07-02T07:54:23.907Z,94.80
2018-07-02T07:56:55.030Z,93.30
2018-07-02T07:59:25.114Z,94.60
2018-07-02T08:01:54.439Z,93.60
2018-07-02T08:04:24.256Z,94.40
2018-07-02T08:06:54.231Z,93.90
2018-07-02T08:09:22.941Z,93.40
2018-07-02T08:11:51.721Z,93.40
2018-07-02T08:14:20.441Z,91.70
2018-07-02T08:16:49.827Z,90.10
2018-07-02T08:19:18.704Z,91.40
2018-07-02T08:21:47.824Z,90.20
2018-07-02T08:24:17.612Z,92.20
2018-07-02T08:26:47.464Z,91.70
2018-07-02T08:29:18.641Z,90.60
2018-07-02T08:31:48.355Z,88.90
2018-07-02T08:34:21.005Z,89.00
2018-07-02T08:36:49.750Z,91.80
2018-07-02T08:39:22.424Z,91.80
2018-07-02T08:41:51.240Z,91.30
2018-07-02T08:44:20.958Z,88.90
2018-07-02T08:46:50.822Z,90.60
2018-07-02T08:49:21.413Z,90.40
2018-07-02T08:51:51.286Z,92.90
2018-07-02T08:54:24.005Z,90.70
2018-07-02T08:56:53.828Z,91.90
2018-07-02T08:59:23.533Z,88.00
2018-07-02T09:01:52.237Z,89.00
2018-07-02T09:04:22.895Z,89.00
2018-07-02T09:06:51.684Z,91.10
2018-07-02T09:09:20.383Z,87.50
2018-07-02T09:11:49.110Z,86.50
2018-07-02T09:14:17.742Z,86.30
2018-07-02T09:16:46.340Z,90.70
2018-07-02T09:19:16.004Z,86.80
2018-07-02T09:21:45.671Z,92.10
2018-07-02T09:24:14.271Z,83.90
2018-07-02T09:26:43.928Z,82.80
2018-07-02T09:29:12.709Z,90.90
2018-07-02T09:31:41.336Z,83.60
2018-07-02T09:34:19.900Z,82.40
2018-07-02T09:36:48.573Z,81.80
2018-07-02T09:39:17.186Z,86.30
2018-07-02T09:41:45.958Z,82.40
2018-07-02T09:44:14.662Z,84.80
2018-07-02T09:46:43.401Z,82.10
2018-07-02T09:49:12.472Z,84.10
2018-07-02T09:51:41.232Z,84.30
2018-07-02T09:54:09.944Z,85.70
2018-07-02T09:56:38.931Z,86.50
2018-07-02T09:59:08.300Z,90.60
2018-07-02T10:01:38.165Z,84.00
2018-07-02T10:04:06.935Z,89.90
2018-07-02T10:06:35.665Z,89.00
2018-07-02T10:09:08.709Z,82.90
2018-07-02T10:11:41.403Z,89.70
2018-07-02T10:14:11.411Z,87.90
2018-07-02T10:16:42.139Z,80.50
2018-07-02T10:19:10.951Z,86.90
2018-07-02T10:21:39.688Z,84.20
2018-07-02T10:24:08.404Z,85.80
2018-07-02T10:26:39.542Z,83.80
2018-07-02T10:29:08.387Z,87.80
2018-07-02T10:31:38.179Z,86.90
2018-07-02T10:34:08.065Z,84.10
2018-07-02T10:36:37.785Z,90.10
2018-07-02T10:39:08.320Z,84.50
2018-07-02T10:41:37.797Z,80.30
2018-07-02T10:44:06.774Z,86.40
2018-07-02T10:46:35.546Z,88.40
2018-07-02T10:49:04.432Z,81.10
2018-07-02T10:51:33.190Z,85.90
2018-07-02T10:54:01.993Z,80.90
2018-07-02T10:56:34.800Z,84.80
2018-07-02T10:59:03.639Z,84.30
2018-07-02T11:01:32.496Z,79.40
2018-07-02T11:04:01.365Z,87.70
2018-07-02T11:06:31.072Z,84.60
2018-07-02T11:08:59.917Z,80.80
2018-07-02T11:11:29.576Z,91.40
2018-07-02T11:13:58.323Z,83.90
2018-07-02T11:16:28.015Z,86.90
2018-07-02T11:18:58.729Z,92.30
2018-07-02T11:21:27.572Z,87.10
2018-07-02T11:23:56.585Z,88.10
2018-07-02T11:26:26.422Z,89.10
2018-07-02T11:28:55.646Z,87.60
2018-07-02T11:31:25.425Z,90.00
2018-07-02T11:33:54.319Z,92.30
2018-07-02T11:36:23.452Z,89.30
2018-07-02T11:38:54.185Z,90.60
2018-07-02T11:41:22.941Z,91.50
2018-07-02T11:43:51.680Z,90.70
2018-07-02T11:46:21.434Z,89.80
2018-07-02T11:48:51.287Z,93.30
2018-07-02T11:51:23.868Z,90.90
2018-07-02T11:53:53.546Z,90.00
2018-07-02T11:56:22.262Z,86.00
2018-07-02T11:58:51.015Z,85.50
2018-07-02T12:04:35.303Z,88.90
2018-07-02T12:07:31.978Z,85.10
2018-07-02T12:11:10.520Z,82.90
2018-07-02T12:13:41.975Z,87.30
2018-07-02T12:19:01.798Z,86.20
2018-07-02T12:21:44.292Z,90.90
2018-07-02T12:24:38.433Z,82.30
2018-07-02T12:35:36.460Z,82.50
2018-07-02T12:38:05.054Z,77.60
2018-07-02T12:40:33.635Z,78.00
2018-07-02T12:43:02.341Z,77.80
2018-07-02T12:45:30.987Z,83.80
2018-07-02T12:47:59.565Z,75.60
2018-07-02T12:50:28.176Z,78.10
2018-07-02T12:52:56.770Z,75.30
2018-07-02T12:55:26.514Z,78.80
2018-07-02T12:57:55.584Z,78.20
2018-07-02T13:00:24.167Z,83.90
2018-07-02T13:02:52.791Z,80.00
2018-07-02T13:05:22.505Z,77.30
2018-07-02T13:07:51.118Z,77.30
2018-07-02T13:10:19.926Z,80.80
2018-07-02T13:12:48.598Z,82.70
2018-07-02T13:15:17.212Z,79.80
2018-07-02T13:17:46.017Z,79.10
2018-07-02T13:20:14.607Z,79.40
2018-07-02T13:22:43.244Z,87.20
2018-07-02T13:25:12.008Z,79.00
2018-07-02T13:27:40.649Z,84.40
2018-07-02T13:30:09.551Z,77.80
2018-07-02T13:32:39.182Z,82.60
2018-07-02T13:35:07.839Z,75.40
2018-07-02T13:37:37.531Z,77.80
2018-07-02T13:40:06.110Z,74.40
2018-07-02T13:42:34.928Z,73.20
2018-07-02T13:45:04.751Z,71.50
2018-07-02T13:47:37.278Z,76.10
2018-07-02T13:50:06.135Z,75.20
2018-07-02T13:52:35.801Z,76.30
2018-07-02T13:55:04.670Z,73.60
2018-07-02T13:57:33.311Z,77.20
2018-07-02T14:00:01.931Z,78.50
2018-07-02T14:02:30.762Z,73.30
2018-07-02T14:04:59.314Z,71.30
2018-07-02T14:07:27.933Z,76.60
2018-07-02T14:09:56.575Z,75.20
2018-07-02T14:12:25.234Z,78.00
2018-07-02T14:14:54.868Z,78.10
2018-07-02T14:17:24.553Z,74.30
2018-07-02T14:19:53.196Z,74.60
2018-07-02T14:22:21.876Z,74.40
2018-07-02T14:24:50.547Z,73.00
2018-07-02T14:27:19.262Z,72.00
2018-07-02T14:29:47.929Z,74.00
2018-07-02T14:32:17.573Z,73.90
2018-07-02T14:34:46.245Z,71.50
2018-07-02T14:37:15.098Z,72.30
2018-07-02T14:39:44.801Z,68.90
2018-07-02T14:42:13.428Z,69.90
2018-07-02T14:44:42.269Z,79.50
2018-07-02T14:47:10.884Z,73.20
2018-07-02T14:49:40.517Z,67.90
2018-07-02T14:52:09.251Z,69.10
2018-07-02T14:54:42.592Z,71.80
2018-07-02T14:57:11.347Z,73.10
2018-07-02T14:59:40.040Z,71.20
2018-07-02T15:02:09.402Z,69.40
2018-07-02T15:04:39.040Z,78.20
2018-07-02T15:07:07.698Z,76.70
2018-07-02T15:09:36.502Z,71.60
2018-07-02T15:12:05.297Z,70.60
2018-07-02T15:14:34.979Z,74.90
2018-07-02T15:17:03.716Z,74.40
2018-07-02T15:19:32.732Z,69.90
2018-07-02T15:22:04.252Z,75.70
2018-07-02T15:24:34.132Z,70.40
2018-07-02T15:27:03.854Z,77.10
2018-07-02T15:29:32.602Z,70.20
2018-07-02T15:32:02.406Z,68.20
2018-07-02T15:34:32.137Z,67.50
2018-07-02T15:37:00.898Z,74.40
2018-07-02T15:39:29.546Z,70.20
2018-07-02T15:41:58.196Z,69.60
2018-07-02T15:44:26.935Z,68.40
2018-07-02T15:46:56.173Z,68.60
2018-07-02T15:49:24.844Z,71.30
2018-07-02T15:51:53.624Z,72.30
2018-07-02T15:54:22.427Z,73.30
2018-07-02T15:56:58.675Z,69.00
2018-07-02T15:59:31.235Z,69.00
2018-07-02T16:13:31.533Z,68.00
2018-07-02T16:16:01.171Z,69.80
2018-07-02T16:18:29.917Z,69.90
2018-07-02T16:20:58.674Z,69.70
2018-07-02T16:23:27.447Z,70.60
2018-07-02T16:25:56.253Z,71.50
2018-07-02T16:30:54.472Z,72.60
2018-07-02T16:33:23.322Z,70.00
2018-07-02T16:35:53.168Z,69.80
2018-07-02T16:38:22.832Z,71.10
2018-07-02T16:40:52.575Z,75.50
2018-07-02T16:43:22.442Z,75.50
2018-07-02T16:45:51.911Z,76.30
2018-07-02T16:48:20.700Z,75.90
2018-07-02T16:50:49.591Z,77.30
2018-07-02T16:53:18.410Z,79.70
2018-07-02T16:55:47.331Z,73.80
2018-07-02T16:58:16.075Z,75.40
2018-07-02T17:00:44.902Z,74.60
2018-07-02T17:03:14.712Z,71.60
2018-07-02T17:05:44.465Z,71.20
2018-07-02T17:08:13.214Z,69.90
2018-07-02T17:10:41.985Z,71.80
2018-07-02T17:13:11.653Z,76.80
2018-07-02T17:15:40.431Z,70.90
2018-07-02T17:18:11.240Z,68.70
2018-07-02T17:20:41.009Z,69.40
2018-07-02T17:23:09.728Z,70.50
2018-07-02T17:25:38.426Z,71.10
2018-07-02T17:28:08.364Z,66.90
2018-07-02T17:30:37.203Z,69.40
2018-07-02T17:33:07.611Z,71.60
2018-07-02T17:35:37.355Z,71.60
2018-07-02T17:38:09.995Z,71.70
2018-07-02T17:40:38.738Z,74.30
2018-07-02T17:43:07.966Z,71.90
2018-07-02T17:45:36.722Z,74.10
2018-07-02T17:48:05.781Z,77.50
2018-07-02T17:50:36.417Z,75.60
2018-07-02T17:53:06.257Z,77.70
2018-07-02T17:55:34.900Z,76.50
2018-07-02T17:58:03.638Z,77.60
2018-07-02T18:00:32.363Z,78.50
2018-07-02T18:03:01.054Z,74.30
2018-07-02T18:05:30.410Z,76.60
2018-07-02T18:07:59.058Z,74.10
2018-07-02T18:10:27.851Z,77.50
2018-07-02T18:12:56.517Z,77.40
2018-07-02T18:15:25.471Z,77.50
2018-07-02T18:17:54.149Z,78.40
2018-07-02T18:20:22.819Z,78.70
2018-07-02T18:25:19.761Z,75.50
2018-07-02T18:28:48.848Z,74.10
2018-07-02T18:31:17.616Z,73.90
2018-07-02T18:33:47.344Z,75.20
2018-07-02T18:36:16.073Z,77.40
2018-07-02T18:38:44.963Z,77.40
2018-07-02T18:41:13.631Z,77.30
2018-07-02T18:43:42.373Z,77.20
2018-07-02T18:46:11.129Z,80.10
2018-07-02T18:48:40.881Z,84.90
2018-07-02T18:51:09.624Z,87.50
2018-07-02T18:53:38.716Z,86.80
2018-07-02T18:56:09.487Z,87.70
2018-07-02T18:58:38.202Z,86.50
2018-07-02T19:01:06.909Z,88.30
2018-07-02T19:03:35.583Z,89.30
2018-07-02T19:06:04.841Z,91.40
2018-07-02T19:08:34.048Z,91.20
2018-07-02T19:11:02.945Z,91.50
2018-07-02T19:13:31.630Z,90.80
2018-07-02T19:16:00.322Z,91.30
2018-07-02T19:18:28.999Z,91.90
2018-07-02T19:20:59.079Z,92.40
2018-07-02T19:23:27.702Z,92.80
2018-07-02T19:25:57.343Z,93.40
2018-07-02T19:28:26.354Z,93.30
2018-07-02T19:30:56.118Z,93.60
2018-07-02T19:33:24.900Z,93.90
2018-07-02T19:35:53.892Z,94.30
2018-07-02T19:38:22.716Z,94.70
2018-07-02T19:40:55.646Z,95.10
2018-07-02T19:43:24.566Z,94.80
2018-07-02T19:45:53.345Z,94.80
2018-07-02T19:48:22.073Z,94.30
2018-07-02T19:50:50.928Z,93.70
2018-07-02T19:53:24.046Z,93.40
2018-07-02T19:55:53.836Z,93.70
2018-07-02T19:58:26.336Z,94.30
2018-07-02T20:00:55.100Z,95.00
2018-07-02T20:03:23.727Z,96.30
2018-07-02T20:05:52.483Z,96.60
2018-07-02T20:08:21.201Z,98.20
2018-07-02T20:10:52.312Z,99.40
2018-07-02T20:13:22.097Z,99.40
2018-07-02T20:15:50.780Z,98.30
2018-07-02T20:18:19.569Z,99.20
2018-07-02T20:20:48.569Z,99.90
2018-07-02T20:23:17.499Z,99.90
2018-07-02T20:25:46.349Z,99.90
2018-07-02T20:28:15.157Z,99.90
2018-07-02T20:30:44.984Z,99.90
2018-07-02T20:33:13.775Z,99.90
2018-07-02T20:35:42.627Z,99.90
2018-07-02T20:38:12.358Z,99.90
2018-07-02T20:40:41.185Z,99.90
2018-07-02T20:43:09.995Z,99.90
2018-07-02T20:45:38.723Z,99.90
2018-07-02T20:48:09.803Z,99.90
2018-07-02T20:50:38.646Z,99.90
2018-07-02T20:53:09.768Z,99.90
2018-07-02T20:55:38.524Z,99.90
2018-07-02T20:58:11.547Z,99.90
2018-07-02T21:00:40.413Z,99.90
2018-07-02T21:03:10.177Z,99.90
2018-07-02T21:05:40.102Z,99.90
2018-07-02T21:08:09.978Z,99.90
2018-07-02T21:10:38.672Z,99.90
2018-07-02T21:13:07.836Z,99.90
2018-07-02T21:15:36.603Z,99.90
2018-07-02T21:18:05.657Z,99.90
2018-07-02T21:20:34.383Z,99.90
2018-07-02T21:23:03.347Z,99.90
2018-07-02T21:25:32.124Z,99.90
2018-07-02T21:28:00.955Z,99.90
2018-07-02T21:30:29.736Z,99.90
2018-07-02T21:32:59.672Z,99.90
2018-07-02T21:35:28.510Z,99.90
2018-07-02T21:37:57.357Z,99.90
2018-07-02T21:40:26.387Z,99.90
2018-07-02T21:42:55.280Z,99.90
2018-07-02T21:45:25.598Z,99.90
2018-07-02T21:47:54.346Z,99.90
2018-07-02T21:50:26.294Z,99.90
2018-07-02T21:52:55.112Z,99.90
2018-07-02T21:55:26.336Z,99.90
2018-07-02T21:57:59.400Z,99.90
2018-07-02T22:00:28.183Z,99.90
2018-07-02T22:02:58.152Z,99.90
2018-07-02T22:05:27.263Z,99.90
2018-07-02T22:07:55.953Z,99.90
2018-07-02T22:10:25.778Z,99.90
2018-07-02T22:12:54.534Z,99.90
2018-07-02T22:15:23.500Z,99.90
2018-07-02T22:17:54.529Z,99.90
2018-07-02T22:20:24.368Z,99.90
2018-07-02T22:22:53.077Z,99.90
2018-07-02T22:25:21.893Z,99.90
2018-07-02T22:27:50.885Z,99.90
2018-07-02T22:30:19.663Z,99.90
2018-07-02T22:32:48.358Z,99.90
2018-07-02T22:35:17.461Z,99.90
2018-07-02T22:37:46.264Z,99.90
2018-07-02T22:40:15.784Z,99.90
2018-07-02T22:42:44.667Z,99.90
2018-07-02T22:45:14.381Z,99.90
2018-07-02T22:47:43.019Z,99.90
2018-07-02T22:50:16.319Z,99.90
2018-07-02T22:52:45.119Z,99.90
2018-07-02T22:55:13.820Z,99.90
2018-07-02T22:57:42.594Z,99.90
2018-07-02T23:00:11.368Z,99.90
2018-07-02T23:02:40.181Z,99.90
2018-07-02T23:05:09.944Z,99.90
2018-07-02T23:07:38.727Z,99.90
2018-07-02T23:10:08.583Z,99.90
2018-07-02T23:12:41.438Z,99.90
2018-07-02T23:15:13.886Z,99.90
2018-07-02T23:17:42.694Z,99.90
2018-07-02T23:20:11.432Z,99.90
2018-07-02T23:23:01.622Z,99.90
2018-07-02T23:25:30.783Z,99.90
2018-07-02T23:28:02.104Z,99.90
2018-07-02T23:30:32.141Z,99.90
2018-07-02T23:33:01.215Z,99.90
2018-07-02T23:35:29.978Z,99.90
2018-07-02T23:37:58.845Z,99.90
2018-07-02T23:40:27.670Z,99.90
2018-07-02T23:42:56.483Z,99.90
2018-07-02T23:45:25.353Z,99.90
2018-07-02T23:47:54.091Z,99.90
2018-07-02T23:50:22.927Z,99.90
2018-07-02T23:52:51.749Z,99.90
2018-07-02T23:55:21.510Z,99.90
2018-07-02T23:57:50.786Z,99.90
